sensor_id;sensor_type;location;lat;lon;timestamp;temperature;humidity
14378;DHT22;7272;53.668;9.578;2023-11-19T00:01:36;7.10;99.90
14378;DHT22;7272;53.668;9.578;2023-11-19T00:04:38;7.10;99.90
14378;DHT22;7272;53.668;9.578;2023-11-19T00:07:40;7.10;99.90
14378;DHT22;7272;53.668;9.578;2023-11-19T00:10:42;7.10;99.90
14378;DHT22;7272;53.668;9.578;2023-11-19T00:13:43;7.10;99.90
14378;DHT22;7272;53.668;9.578;2023-11-19T00:16:44;7.10;99.90
14378;DHT22;7272;53.668;9.578;2023-11-19T00:19:46;7.10;99.90
14378;DHT22;7272;53.668;9.578;2023-11-19T00:22:47;7.10;99.90
14378;DHT22;7272;53.668;9.578;2023-11-19T00:25:51;7.10;99.90
14378;DHT22;7272;53.668;9.578;2023-11-19T00:28:52;7.20;99.90
14378;DHT22;7272;53.668;9.578;2023-11-19T00:31:53;7.10;99.90
14378;DHT22;7272;53.668;9.578;2023-11-19T00:34:55;7.10;99.90
14378;DHT22;7272;53.668;9.578;2023-11-19T00:37:57;7.10;99.90
14378;DHT22;7272;53.668;9.578;2023-11-19T00:40:59;7.10;99.90
14378;DHT22;7272;53.668;9.578;2023-11-19T00:44:00;7.10;99.90
14378;DHT22;7272;53.668;9.578;2023-11-19T00:47:02;7.20;99.90
14378;DHT22;7272;53.668;9.578;2023-11-19T00:50:04;7.20;99.90
14378;DHT22;7272;53.668;9.578;2023-11-19T00:53:06;7.20;99.90
14378;DHT22;7272;53.668;9.578;2023-11-19T00:56:08;7.20;99.90
14378;DHT22;7272;53.668;9.578;2023-11-19T00:59:09;7.20;99.90
14378;DHT22;7272;53.668;9.578;2023-11-19T01:02:11;7.20;99.90
14378;DHT22;7272;53.668;9.578;2023-11-19T01:05:15;7.20;99.90
14378;DHT22;7272;53.668;9.578;2023-11-19T01:08:16;7.20;99.90
14378;DHT22;7272;53.668;9.578;2023-11-19T01:11:20;7.20;99.90
14378;DHT22;7272;53.668;9.578;2023-11-19T01:14:22;7.20;99.90
14378;DHT22;7272;53.668;9.578;2023-11-19T01:17:23;7.20;99.90
14378;DHT22;7272;53.668;9.578;2023-11-19T01:20:25;7.20;99.90
14378;DHT22;7272;53.668;9.578;2023-11-19T01:23:27;7.20;99.90
14378;DHT22;7272;53.668;9.578;2023-11-19T01:26:28;7.20;99.90
14378;DHT22;7272;53.668;9.578;2023-11-19T01:29:29;7.30;99.90
14378;DHT22;7272;53.668;9.578;2023-11-19T01:32:30;7.30;99.90
14378;DHT22;7272;53.668;9.578;2023-11-19T01:35:32;7.30;99.90
14378;DHT22;7272;53.668;9.578;2023-11-19T01:38:34;7.30;99.90
14378;DHT22;7272;53.668;9.578;2023-11-19T01:41:35;7.40;99.90
14378;DHT22;7272;53.668;9.578;2023-11-19T01:44:36;7.30;99.90
14378;DHT22;7272;53.668;9.578;2023-11-19T01:47:38;7.40;99.90
14378;DHT22;7272;53.668;9.578;2023-11-19T01:50:39;7.40;99.90
14378;DHT22;7272;53.668;9.578;2023-11-19T01:53:41;7.40;99.90
14378;DHT22;7272;53.668;9.578;2023-11-19T01:56:42;7.40;99.90
14378;DHT22;7272;53.668;9.578;2023-11-19T01:59:44;7.40;99.90
14378;DHT22;7272;53.668;9.578;2023-11-19T02:02:46;7.40;99.90
14378;DHT22;7272;53.668;9.578;2023-11-19T02:05:49;7.50;99.90
14378;DHT22;7272;53.668;9.578;2023-11-19T02:08:51;7.50;99.90
14378;DHT22;7272;53.668;9.578;2023-11-19T02:11:52;7.50;99.90
14378;DHT22;7272;53.668;9.578;2023-11-19T02:14:55;7.40;99.90
14378;DHT22;7272;53.668;9.578;2023-11-19T02:17:56;7.50;99.90
14378;DHT22;7272;53.668;9.578;2023-11-19T02:20:58;7.50;99.90
14378;DHT22;7272;53.668;9.578;2023-11-19T02:24:01;7.50;99.90
14378;DHT22;7272;53.668;9.578;2023-11-19T02:27:10;7.50;99.90
14378;DHT22;7272;53.668;9.578;2023-11-19T02:30:16;7.50;99.90
14378;DHT22;7272;53.668;9.578;2023-11-19T02:33:17;7.50;99.90
14378;DHT22;7272;53.668;9.578;2023-11-19T02:36:19;7.60;99.90
14378;DHT22;7272;53.668;9.578;2023-11-19T02:39:21;7.60;99.90
14378;DHT22;7272;53.668;9.578;2023-11-19T02:42:22;7.60;99.90
14378;DHT22;7272;53.668;9.578;2023-11-19T02:45:25;7.60;99.90
14378;DHT22;7272;53.668;9.578;2023-11-19T02:48:26;7.70;99.90
14378;DHT22;7272;53.668;9.578;2023-11-19T02:51:27;7.70;99.90
14378;DHT22;7272;53.668;9.578;2023-11-19T02:54:28;7.80;99.90
14378;DHT22;7272;53.668;9.578;2023-11-19T02:57:31;7.80;99.90
14378;DHT22;7272;53.668;9.578;2023-11-19T03:00:33;7.80;99.90
14378;DHT22;7272;53.668;9.578;2023-11-19T03:03:37;7.90;99.90
14378;DHT22;7272;53.668;9.578;2023-11-19T03:06:41;7.90;99.90
14378;DHT22;7272;53.668;9.578;2023-11-19T03:09:42;8.00;99.90
14378;DHT22;7272;53.668;9.578;2023-11-19T03:12:44;8.10;99.90
14378;DHT22;7272;53.668;9.578;2023-11-19T03:15:47;8.20;99.90
14378;DHT22;7272;53.668;9.578;2023-11-19T03:18:48;8.20;99.90
14378;DHT22;7272;53.668;9.578;2023-11-19T03:21:49;8.30;99.90
14378;DHT22;7272;53.668;9.578;2023-11-19T03:24:51;8.30;99.90
14378;DHT22;7272;53.668;9.578;2023-11-19T03:27:52;8.30;99.90
14378;DHT22;7272;53.668;9.578;2023-11-19T03:30:54;8.40;99.90
14378;DHT22;7272;53.668;9.578;2023-11-19T03:33:55;8.40;99.90
14378;DHT22;7272;53.668;9.578;2023-11-19T03:36:57;8.50;99.90
14378;DHT22;7272;53.668;9.578;2023-11-19T03:39:58;8.50;99.90
14378;DHT22;7272;53.668;9.578;2023-11-19T03:43:00;8.50;99.90
14378;DHT22;7272;53.668;9.578;2023-11-19T03:46:02;8.50;99.90
14378;DHT22;7272;53.668;9.578;2023-11-19T03:49:05;8.60;99.90
14378;DHT22;7272;53.668;9.578;2023-11-19T03:52:08;8.60;99.90
14378;DHT22;7272;53.668;9.578;2023-11-19T03:55:10;8.70;99.90
14378;DHT22;7272;53.668;9.578;2023-11-19T03:58:11;8.70;99.90
14378;DHT22;7272;53.668;9.578;2023-11-19T04:01:13;8.80;99.90
14378;DHT22;7272;53.668;9.578;2023-11-19T04:04:14;8.80;99.90
14378;DHT22;7272;53.668;9.578;2023-11-19T04:07:15;8.80;99.90
14378;DHT22;7272;53.668;9.578;2023-11-19T04:10:17;8.90;99.90
14378;DHT22;7272;53.668;9.578;2023-11-19T04:13:19;9.00;99.90
14378;DHT22;7272;53.668;9.578;2023-11-19T04:16:26;9.00;99.90
14378;DHT22;7272;53.668;9.578;2023-11-19T04:19:29;9.10;99.90
14378;DHT22;7272;53.668;9.578;2023-11-19T04:22:33;9.20;99.90
14378;DHT22;7272;53.668;9.578;2023-11-19T04:25:35;9.30;99.90
14378;DHT22;7272;53.668;9.578;2023-11-19T04:28:37;9.30;99.90
14378;DHT22;7272;53.668;9.578;2023-11-19T04:31:39;9.40;99.90
14378;DHT22;7272;53.668;9.578;2023-11-19T04:34:41;9.50;99.90
14378;DHT22;7272;53.668;9.578;2023-11-19T04:37:42;9.70;99.90
14378;DHT22;7272;53.668;9.578;2023-11-19T04:40:43;9.80;99.90
14378;DHT22;7272;53.668;9.578;2023-11-19T04:43:44;10.00;99.90
14378;DHT22;7272;53.668;9.578;2023-11-19T04:46:46;10.10;99.90
14378;DHT22;7272;53.668;9.578;2023-11-19T04:49:47;10.30;99.90
14378;DHT22;7272;53.668;9.578;2023-11-19T04:52:49;10.40;99.90
14378;DHT22;7272;53.668;9.578;2023-11-19T04:55:50;10.50;99.90
14378;DHT22;7272;53.668;9.578;2023-11-19T04:58:51;10.60;99.90
14378;DHT22;7272;53.668;9.578;2023-11-19T05:01:53;10.80;99.90
14378;DHT22;7272;53.668;9.578;2023-11-19T05:04:54;10.90;99.90
14378;DHT22;7272;53.668;9.578;2023-11-19T05:07:55;11.00;99.90
14378;DHT22;7272;53.668;9.578;2023-11-19T05:10:56;11.10;99.90
14378;DHT22;7272;53.668;9.578;2023-11-19T05:13:58;11.20;99.90
14378;DHT22;7272;53.668;9.578;2023-11-19T05:17:00;11.30;99.90
14378;DHT22;7272;53.668;9.578;2023-11-19T05:20:01;11.30;99.90
14378;DHT22;7272;53.668;9.578;2023-11-19T05:23:03;11.40;99.90
14378;DHT22;7272;53.668;9.578;2023-11-19T05:26:04;11.50;99.90
14378;DHT22;7272;53.668;9.578;2023-11-19T05:29:06;11.60;99.90
14378;DHT22;7272;53.668;9.578;2023-11-19T05:32:08;11.60;99.90
14378;DHT22;7272;53.668;9.578;2023-11-19T05:35:09;11.70;99.90
14378;DHT22;7272;53.668;9.578;2023-11-19T05:38:10;11.70;99.90
14378;DHT22;7272;53.668;9.578;2023-11-19T05:41:11;11.80;99.90
14378;DHT22;7272;53.668;9.578;2023-11-19T05:44:13;11.80;99.90
14378;DHT22;7272;53.668;9.578;2023-11-19T05:47:14;11.90;99.90
14378;DHT22;7272;53.668;9.578;2023-11-19T05:50:15;12.00;99.90
14378;DHT22;7272;53.668;9.578;2023-11-19T05:53:17;12.00;99.90
14378;DHT22;7272;53.668;9.578;2023-11-19T05:56:18;12.10;99.90
14378;DHT22;7272;53.668;9.578;2023-11-19T05:59:22;12.10;99.90
14378;DHT22;7272;53.668;9.578;2023-11-19T06:02:24;12.20;99.90
14378;DHT22;7272;53.668;9.578;2023-11-19T06:05:25;12.20;99.90
14378;DHT22;7272;53.668;9.578;2023-11-19T06:08:26;12.30;99.90
14378;DHT22;7272;53.668;9.578;2023-11-19T06:11:27;12.30;99.90
14378;DHT22;7272;53.668;9.578;2023-11-19T06:14:29;12.30;99.90
14378;DHT22;7272;53.668;9.578;2023-11-19T06:17:31;12.40;99.90
14378;DHT22;7272;53.668;9.578;2023-11-19T06:20:33;12.40;99.90
14378;DHT22;7272;53.668;9.578;2023-11-19T06:23:34;12.40;99.90
14378;DHT22;7272;53.668;9.578;2023-11-19T06:26:35;12.50;99.90
14378;DHT22;7272;53.668;9.578;2023-11-19T06:29:36;12.50;99.90
14378;DHT22;7272;53.668;9.578;2023-11-19T06:32:38;12.50;99.90
14378;DHT22;7272;53.668;9.578;2023-11-19T06:35:39;12.60;99.90
14378;DHT22;7272;53.668;9.578;2023-11-19T06:38:41;12.60;99.90
14378;DHT22;7272;53.668;9.578;2023-11-19T06:41:45;12.60;99.90
14378;DHT22;7272;53.668;9.578;2023-11-19T06:44:46;12.60;99.90
14378;DHT22;7272;53.668;9.578;2023-11-19T06:47:48;12.60;99.90
14378;DHT22;7272;53.668;9.578;2023-11-19T06:50:49;12.60;99.90
14378;DHT22;7272;53.668;9.578;2023-11-19T06:53:51;12.70;99.90
14378;DHT22;7272;53.668;9.578;2023-11-19T06:56:52;12.70;99.90
14378;DHT22;7272;53.668;9.578;2023-11-19T06:59:53;12.70;99.90
14378;DHT22;7272;53.668;9.578;2023-11-19T07:02:55;12.70;99.90
14378;DHT22;7272;53.668;9.578;2023-11-19T07:05:56;12.60;99.90
14378;DHT22;7272;53.668;9.578;2023-11-19T07:08:57;12.60;99.90
14378;DHT22;7272;53.668;9.578;2023-11-19T07:11:59;12.60;99.90
14378;DHT22;7272;53.668;9.578;2023-11-19T07:15:02;12.60;99.90
14378;DHT22;7272;53.668;9.578;2023-11-19T07:18:04;12.60;99.90
14378;DHT22;7272;53.668;9.578;2023-11-19T07:21:06;12.60;99.90
14378;DHT22;7272;53.668;9.578;2023-11-19T07:24:08;12.70;99.90
14378;DHT22;7272;53.668;9.578;2023-11-19T07:27:09;12.70;99.90
14378;DHT22;7272;53.668;9.578;2023-11-19T07:30:10;12.70;99.90
14378;DHT22;7272;53.668;9.578;2023-11-19T07:33:12;12.60;99.90
14378;DHT22;7272;53.668;9.578;2023-11-19T07:36:14;12.70;99.90
14378;DHT22;7272;53.668;9.578;2023-11-19T07:39:15;12.60;99.90
14378;DHT22;7272;53.668;9.578;2023-11-19T07:42:17;12.60;99.90
14378;DHT22;7272;53.668;9.578;2023-11-19T07:45:18;12.70;99.90
14378;DHT22;7272;53.668;9.578;2023-11-19T07:48:20;12.70;99.90
14378;DHT22;7272;53.668;9.578;2023-11-19T07:51:24;12.70;99.90
14378;DHT22;7272;53.668;9.578;2023-11-19T07:54:25;12.70;99.90
14378;DHT22;7272;53.668;9.578;2023-11-19T07:57:26;12.70;99.90
14378;DHT22;7272;53.668;9.578;2023-11-19T08:00:31;12.70;99.90
14378;DHT22;7272;53.668;9.578;2023-11-19T08:03:33;12.70;99.90
14378;DHT22;7272;53.668;9.578;2023-11-19T08:06:35;12.70;99.90
14378;DHT22;7272;53.668;9.578;2023-11-19T08:09:36;12.80;99.90
14378;DHT22;7272;53.668;9.578;2023-11-19T08:12:38;12.80;99.90
14378;DHT22;7272;53.668;9.578;2023-11-19T08:15:39;12.80;99.90
14378;DHT22;7272;53.668;9.578;2023-11-19T08:18:42;12.80;99.90
14378;DHT22;7272;53.668;9.578;2023-11-19T08:21:43;12.80;99.90
14378;DHT22;7272;53.668;9.578;2023-11-19T08:24:45;12.90;99.90
14378;DHT22;7272;53.668;9.578;2023-11-19T08:27:46;13.00;99.90
14378;DHT22;7272;53.668;9.578;2023-11-19T08:30:48;12.90;99.90
14378;DHT22;7272;53.668;9.578;2023-11-19T08:33:49;12.90;99.90
14378;DHT22;7272;53.668;9.578;2023-11-19T08:36:51;12.90;99.90
14378;DHT22;7272;53.668;9.578;2023-11-19T08:39:53;12.90;99.90
14378;DHT22;7272;53.668;9.578;2023-11-19T08:42:55;12.90;99.90
14378;DHT22;7272;53.668;9.578;2023-11-19T08:45:56;12.90;99.90
14378;DHT22;7272;53.668;9.578;2023-11-19T08:48:58;12.90;99.90
14378;DHT22;7272;53.668;9.578;2023-11-19T08:52:01;12.90;99.90
14378;DHT22;7272;53.668;9.578;2023-11-19T08:55:03;12.90;99.90
14378;DHT22;7272;53.668;9.578;2023-11-19T08:58:05;13.00;99.90
14378;DHT22;7272;53.668;9.578;2023-11-19T09:01:07;13.00;99.90
14378;DHT22;7272;53.668;9.578;2023-11-19T09:04:09;13.10;99.90
14378;DHT22;7272;53.668;9.578;2023-11-19T09:07:10;13.10;99.90
14378;DHT22;7272;53.668;9.578;2023-11-19T09:10:11;13.10;99.90
14378;DHT22;7272;53.668;9.578;2023-11-19T09:13:13;13.10;99.90
14378;DHT22;7272;53.668;9.578;2023-11-19T09:16:14;13.10;99.90
14378;DHT22;7272;53.668;9.578;2023-11-19T09:19:16;13.10;99.90
14378;DHT22;7272;53.668;9.578;2023-11-19T09:22:18;13.00;99.90
14378;DHT22;7272;53.668;9.578;2023-11-19T09:25:19;13.00;99.90
14378;DHT22;7272;53.668;9.578;2023-11-19T09:28:21;13.00;99.90
14378;DHT22;7272;53.668;9.578;2023-11-19T09:31:22;13.10;99.90
14378;DHT22;7272;53.668;9.578;2023-11-19T09:34:24;13.10;99.90
14378;DHT22;7272;53.668;9.578;2023-11-19T09:37:25;13.10;99.90
14378;DHT22;7272;53.668;9.578;2023-11-19T09:40:27;13.20;99.90
14378;DHT22;7272;53.668;9.578;2023-11-19T09:43:29;13.20;99.90
14378;DHT22;7272;53.668;9.578;2023-11-19T09:46:31;13.30;99.90
14378;DHT22;7272;53.668;9.578;2023-11-19T09:49:35;13.40;99.90
14378;DHT22;7272;53.668;9.578;2023-11-19T09:52:37;13.40;99.90
14378;DHT22;7272;53.668;9.578;2023-11-19T09:55:38;13.30;99.90
14378;DHT22;7272;53.668;9.578;2023-11-19T09:58:39;13.30;99.90
14378;DHT22;7272;53.668;9.578;2023-11-19T10:01:42;13.20;99.90
14378;DHT22;7272;53.668;9.578;2023-11-19T10:04:46;13.10;99.90
14378;DHT22;7272;53.668;9.578;2023-11-19T10:07:48;13.10;99.90
14378;DHT22;7272;53.668;9.578;2023-11-19T10:10:50;13.10;99.90
14378;DHT22;7272;53.668;9.578;2023-11-19T10:13:53;13.10;99.90
14378;DHT22;7272;53.668;9.578;2023-11-19T10:16:55;13.10;99.90
14378;DHT22;7272;53.668;9.578;2023-11-19T10:19:57;13.10;99.90
14378;DHT22;7272;53.668;9.578;2023-11-19T10:22:58;13.10;99.90
14378;DHT22;7272;53.668;9.578;2023-11-19T10:26:03;13.10;99.90
14378;DHT22;7272;53.668;9.578;2023-11-19T10:29:05;13.20;99.90
14378;DHT22;7272;53.668;9.578;2023-11-19T10:32:07;13.10;99.90
14378;DHT22;7272;53.668;9.578;2023-11-19T10:35:09;13.20;99.90
14378;DHT22;7272;53.668;9.578;2023-11-19T10:38:14;13.20;99.90
14378;DHT22;7272;53.668;9.578;2023-11-19T10:41:26;13.20;99.90
14378;DHT22;7272;53.668;9.578;2023-11-19T10:44:31;13.10;99.90
14378;DHT22;7272;53.668;9.578;2023-11-19T10:47:35;13.10;99.90
14378;DHT22;7272;53.668;9.578;2023-11-19T10:50:40;13.10;99.90
14378;DHT22;7272;53.668;9.578;2023-11-19T10:53:43;13.00;99.90
14378;DHT22;7272;53.668;9.578;2023-11-19T10:56:44;13.00;99.90
14378;DHT22;7272;53.668;9.578;2023-11-19T10:59:52;13.10;99.90
14378;DHT22;7272;53.668;9.578;2023-11-19T11:03:00;13.10;99.90
14378;DHT22;7272;53.668;9.578;2023-11-19T11:06:03;13.10;99.90
14378;DHT22;7272;53.668;9.578;2023-11-19T11:09:05;13.10;99.90
14378;DHT22;7272;53.668;9.578;2023-11-19T11:12:12;13.20;99.90
14378;DHT22;7272;53.668;9.578;2023-11-19T11:15:14;13.40;99.90
14378;DHT22;7272;53.668;9.578;2023-11-19T11:18:17;13.60;99.90
14378;DHT22;7272;53.668;9.578;2023-11-19T11:21:22;13.60;99.90
14378;DHT22;7272;53.668;9.578;2023-11-19T11:24:34;13.70;99.90
14378;DHT22;7272;53.668;9.578;2023-11-19T11:27:50;13.60;99.90
14378;DHT22;7272;53.668;9.578;2023-11-19T11:31:21;13.50;99.90
14378;DHT22;7272;53.668;9.578;2023-11-19T11:34:42;13.40;99.90
14378;DHT22;7272;53.668;9.578;2023-11-19T11:37:50;13.20;99.90
14378;DHT22;7272;53.668;9.578;2023-11-19T11:41:16;13.10;99.90
14378;DHT22;7272;53.668;9.578;2023-11-19T11:48:12;13.10;99.90
14378;DHT22;7272;53.668;9.578;2023-11-19T11:51:13;13.20;99.90
14378;DHT22;7272;53.668;9.578;2023-11-19T11:54:26;13.30;99.90
14378;DHT22;7272;53.668;9.578;2023-11-19T11:57:36;13.30;99.90
14378;DHT22;7272;53.668;9.578;2023-11-19T12:00:38;13.40;99.90
14378;DHT22;7272;53.668;9.578;2023-11-19T12:03:40;13.40;99.90
14378;DHT22;7272;53.668;9.578;2023-11-19T12:06:41;13.40;99.90
14378;DHT22;7272;53.668;9.578;2023-11-19T12:09:48;13.30;99.90
14378;DHT22;7272;53.668;9.578;2023-11-19T12:12:52;13.30;99.90
14378;DHT22;7272;53.668;9.578;2023-11-19T12:16:10;13.30;99.90
14378;DHT22;7272;53.668;9.578;2023-11-19T12:19:12;13.40;99.90
14378;DHT22;7272;53.668;9.578;2023-11-19T12:22:14;13.40;99.90
14378;DHT22;7272;53.668;9.578;2023-11-19T12:25:17;13.40;99.90
14378;DHT22;7272;53.668;9.578;2023-11-19T12:28:19;13.40;99.90
14378;DHT22;7272;53.668;9.578;2023-11-19T12:31:21;13.40;99.90
14378;DHT22;7272;53.668;9.578;2023-11-19T12:34:22;13.40;99.90
14378;DHT22;7272;53.668;9.578;2023-11-19T12:37:24;13.40;99.90
14378;DHT22;7272;53.668;9.578;2023-11-19T12:40:26;13.30;99.90
14378;DHT22;7272;53.668;9.578;2023-11-19T12:43:29;13.30;99.90
14378;DHT22;7272;53.668;9.578;2023-11-19T12:46:30;13.30;99.90
14378;DHT22;7272;53.668;9.578;2023-11-19T12:49:32;13.30;99.90
14378;DHT22;7272;53.668;9.578;2023-11-19T12:52:34;13.30;99.90
14378;DHT22;7272;53.668;9.578;2023-11-19T12:55:36;13.40;99.90
14378;DHT22;7272;53.668;9.578;2023-11-19T12:58:37;13.30;99.90
14378;DHT22;7272;53.668;9.578;2023-11-19T13:01:39;13.30;99.90
14378;DHT22;7272;53.668;9.578;2023-11-19T13:04:41;13.40;99.90
14378;DHT22;7272;53.668;9.578;2023-11-19T13:07:43;13.40;99.90
14378;DHT22;7272;53.668;9.578;2023-11-19T13:10:51;13.40;99.90
14378;DHT22;7272;53.668;9.578;2023-11-19T13:13:56;13.40;99.90
14378;DHT22;7272;53.668;9.578;2023-11-19T13:16:58;13.40;99.90
14378;DHT22;7272;53.668;9.578;2023-11-19T13:19:59;13.30;99.90
14378;DHT22;7272;53.668;9.578;2023-11-19T13:23:01;13.30;99.90
14378;DHT22;7272;53.668;9.578;2023-11-19T13:26:04;13.30;99.90
14378;DHT22;7272;53.668;9.578;2023-11-19T13:29:05;13.20;99.90
14378;DHT22;7272;53.668;9.578;2023-11-19T13:32:06;13.20;99.90
14378;DHT22;7272;53.668;9.578;2023-11-19T13:35:09;13.30;99.90
14378;DHT22;7272;53.668;9.578;2023-11-19T13:38:10;13.30;99.90
14378;DHT22;7272;53.668;9.578;2023-11-19T13:41:12;13.30;99.90
14378;DHT22;7272;53.668;9.578;2023-11-19T13:44:14;13.40;99.90
14378;DHT22;7272;53.668;9.578;2023-11-19T13:47:15;13.40;99.90
14378;DHT22;7272;53.668;9.578;2023-11-19T13:50:16;13.40;99.90
14378;DHT22;7272;53.668;9.578;2023-11-19T13:53:18;13.40;99.90
14378;DHT22;7272;53.668;9.578;2023-11-19T13:56:19;13.40;99.90
14378;DHT22;7272;53.668;9.578;2023-11-19T13:59:21;13.30;99.90
14378;DHT22;7272;53.668;9.578;2023-11-19T14:02:22;13.20;99.90
14378;DHT22;7272;53.668;9.578;2023-11-19T14:05:23;13.10;99.90
14378;DHT22;7272;53.668;9.578;2023-11-19T14:08:24;13.10;99.90
14378;DHT22;7272;53.668;9.578;2023-11-19T14:11:26;12.80;99.90
14378;DHT22;7272;53.668;9.578;2023-11-19T14:14:27;12.50;99.90
14378;DHT22;7272;53.668;9.578;2023-11-19T14:17:29;12.30;99.90
14378;DHT22;7272;53.668;9.578;2023-11-19T14:20:30;12.10;99.90
14378;DHT22;7272;53.668;9.578;2023-11-19T14:23:31;12.00;99.90
14378;DHT22;7272;53.668;9.578;2023-11-19T14:26:33;11.80;99.90
14378;DHT22;7272;53.668;9.578;2023-11-19T14:29:34;11.80;99.90
14378;DHT22;7272;53.668;9.578;2023-11-19T14:32:36;11.70;99.90
14378;DHT22;7272;53.668;9.578;2023-11-19T14:35:37;11.70;99.90
14378;DHT22;7272;53.668;9.578;2023-11-19T14:38:39;11.60;99.90
14378;DHT22;7272;53.668;9.578;2023-11-19T14:41:42;11.60;99.90
14378;DHT22;7272;53.668;9.578;2023-11-19T14:44:43;11.60;99.90
14378;DHT22;7272;53.668;9.578;2023-11-19T14:47:45;11.50;99.90
14378;DHT22;7272;53.668;9.578;2023-11-19T14:50:46;11.50;99.90
14378;DHT22;7272;53.668;9.578;2023-11-19T14:53:47;11.50;99.90
14378;DHT22;7272;53.668;9.578;2023-11-19T14:56:49;11.60;99.90
14378;DHT22;7272;53.668;9.578;2023-11-19T14:59:50;11.60;99.90
14378;DHT22;7272;53.668;9.578;2023-11-19T15:02:51;11.70;99.90
14378;DHT22;7272;53.668;9.578;2023-11-19T15:05:53;11.70;99.90
14378;DHT22;7272;53.668;9.578;2023-11-19T15:08:54;11.70;99.90
14378;DHT22;7272;53.668;9.578;2023-11-19T15:11:56;11.60;99.90
14378;DHT22;7272;53.668;9.578;2023-11-19T15:14:59;11.60;99.90
14378;DHT22;7272;53.668;9.578;2023-11-19T15:18:00;11.70;99.90
14378;DHT22;7272;53.668;9.578;2023-11-19T15:21:01;11.80;99.90
14378;DHT22;7272;53.668;9.578;2023-11-19T15:24:03;11.80;99.90
14378;DHT22;7272;53.668;9.578;2023-11-19T15:27:05;11.90;99.90
14378;DHT22;7272;53.668;9.578;2023-11-19T15:30:07;12.10;99.90
14378;DHT22;7272;53.668;9.578;2023-11-19T15:33:10;12.10;99.90
14378;DHT22;7272;53.668;9.578;2023-11-19T15:36:11;12.10;99.90
14378;DHT22;7272;53.668;9.578;2023-11-19T15:39:12;12.10;99.90
14378;DHT22;7272;53.668;9.578;2023-11-19T15:42:15;12.10;99.90
14378;DHT22;7272;53.668;9.578;2023-11-19T15:45:16;12.10;99.90
14378;DHT22;7272;53.668;9.578;2023-11-19T15:48:17;12.10;99.90
14378;DHT22;7272;53.668;9.578;2023-11-19T15:51:18;12.20;99.90
14378;DHT22;7272;53.668;9.578;2023-11-19T15:54:20;12.20;99.90
14378;DHT22;7272;53.668;9.578;2023-11-19T15:57:21;12.20;99.90
14378;DHT22;7272;53.668;9.578;2023-11-19T16:00:23;12.20;99.90
14378;DHT22;7272;53.668;9.578;2023-11-19T16:03:24;12.20;99.90
14378;DHT22;7272;53.668;9.578;2023-11-19T16:06:25;12.20;99.90
14378;DHT22;7272;53.668;9.578;2023-11-19T16:09:26;12.20;99.90
14378;DHT22;7272;53.668;9.578;2023-11-19T16:12:29;12.30;99.90
14378;DHT22;7272;53.668;9.578;2023-11-19T16:15:30;12.30;99.90
14378;DHT22;7272;53.668;9.578;2023-11-19T16:18:32;12.40;99.90
14378;DHT22;7272;53.668;9.578;2023-11-19T16:21:33;12.40;99.90
14378;DHT22;7272;53.668;9.578;2023-11-19T16:24:35;12.40;99.90
14378;DHT22;7272;53.668;9.578;2023-11-19T16:27:37;12.30;99.90
14378;DHT22;7272;53.668;9.578;2023-11-19T16:30:40;12.30;99.90
14378;DHT22;7272;53.668;9.578;2023-11-19T16:33:41;12.20;99.90
14378;DHT22;7272;53.668;9.578;2023-11-19T16:36:42;12.20;99.90
14378;DHT22;7272;53.668;9.578;2023-11-19T16:39:44;12.10;99.90
14378;DHT22;7272;53.668;9.578;2023-11-19T16:42:46;12.10;99.90
14378;DHT22;7272;53.668;9.578;2023-11-19T16:45:48;12.10;99.90
14378;DHT22;7272;53.668;9.578;2023-11-19T16:48:49;12.10;99.90
14378;DHT22;7272;53.668;9.578;2023-11-19T16:51:51;12.00;99.90
14378;DHT22;7272;53.668;9.578;2023-11-19T16:54:54;11.90;99.90
14378;DHT22;7272;53.668;9.578;2023-11-19T16:57:56;11.80;99.90
14378;DHT22;7272;53.668;9.578;2023-11-19T17:00:59;11.80;99.90
14378;DHT22;7272;53.668;9.578;2023-11-19T17:04:03;11.70;99.90
14378;DHT22;7272;53.668;9.578;2023-11-19T17:07:05;11.80;99.90
14378;DHT22;7272;53.668;9.578;2023-11-19T17:10:06;11.80;99.90
14378;DHT22;7272;53.668;9.578;2023-11-19T17:13:09;11.70;99.90
14378;DHT22;7272;53.668;9.578;2023-11-19T17:16:11;11.60;99.90
14378;DHT22;7272;53.668;9.578;2023-11-19T17:19:12;11.50;99.90
14378;DHT22;7272;53.668;9.578;2023-11-19T17:22:14;11.50;99.90
14378;DHT22;7272;53.668;9.578;2023-11-19T17:25:15;11.50;99.90
14378;DHT22;7272;53.668;9.578;2023-11-19T17:28:18;11.50;99.90
14378;DHT22;7272;53.668;9.578;2023-11-19T17:31:19;11.50;99.90
14378;DHT22;7272;53.668;9.578;2023-11-19T17:34:21;11.50;99.90
14378;DHT22;7272;53.668;9.578;2023-11-19T17:37:23;11.50;99.90
14378;DHT22;7272;53.668;9.578;2023-11-19T17:40:24;11.50;99.90
14378;DHT22;7272;53.668;9.578;2023-11-19T17:43:27;11.50;99.90
14378;DHT22;7272;53.668;9.578;2023-11-19T17:46:28;11.50;99.90
14378;DHT22;7272;53.668;9.578;2023-11-19T17:49:29;11.60;99.90
14378;DHT22;7272;53.668;9.578;2023-11-19T17:52:30;11.60;99.90
14378;DHT22;7272;53.668;9.578;2023-11-19T17:55:33;11.80;99.90
14378;DHT22;7272;53.668;9.578;2023-11-19T17:58:34;11.80;99.90
14378;DHT22;7272;53.668;9.578;2023-11-19T18:01:37;11.70;99.90
14378;DHT22;7272;53.668;9.578;2023-11-19T18:04:39;11.80;99.90
14378;DHT22;7272;53.668;9.578;2023-11-19T18:07:40;11.70;99.90
14378;DHT22;7272;53.668;9.578;2023-11-19T18:10:42;11.70;99.90
14378;DHT22;7272;53.668;9.578;2023-11-19T18:13:44;11.70;99.90
14378;DHT22;7272;53.668;9.578;2023-11-19T18:16:46;11.70;99.90
14378;DHT22;7272;53.668;9.578;2023-11-19T18:19:47;11.70;99.90
14378;DHT22;7272;53.668;9.578;2023-11-19T18:22:48;11.80;99.90
14378;DHT22;7272;53.668;9.578;2023-11-19T18:25:49;11.80;99.90
14378;DHT22;7272;53.668;9.578;2023-11-19T18:28:51;11.90;99.90
14378;DHT22;7272;53.668;9.578;2023-11-19T18:31:53;11.90;99.90
14378;DHT22;7272;53.668;9.578;2023-11-19T18:34:55;11.90;99.90
14378;DHT22;7272;53.668;9.578;2023-11-19T18:37:57;12.00;99.90
14378;DHT22;7272;53.668;9.578;2023-11-19T18:40:58;12.00;99.90
14378;DHT22;7272;53.668;9.578;2023-11-19T18:44:00;12.20;99.90
14378;DHT22;7272;53.668;9.578;2023-11-19T18:47:03;12.20;99.90
14378;DHT22;7272;53.668;9.578;2023-11-19T18:50:05;12.20;99.90
14378;DHT22;7272;53.668;9.578;2023-11-19T18:53:08;12.20;99.90
14378;DHT22;7272;53.668;9.578;2023-11-19T18:56:09;12.10;99.90
14378;DHT22;7272;53.668;9.578;2023-11-19T18:59:11;12.10;99.90
14378;DHT22;7272;53.668;9.578;2023-11-19T19:02:13;12.10;99.90
14378;DHT22;7272;53.668;9.578;2023-11-19T19:05:15;12.10;99.90
14378;DHT22;7272;53.668;9.578;2023-11-19T19:08:17;12.10;99.90
14378;DHT22;7272;53.668;9.578;2023-11-19T19:11:18;12.10;99.90
14378;DHT22;7272;53.668;9.578;2023-11-19T19:14:20;12.10;99.90
14378;DHT22;7272;53.668;9.578;2023-11-19T19:17:21;12.10;99.90
14378;DHT22;7272;53.668;9.578;2023-11-19T19:20:22;12.00;99.90
14378;DHT22;7272;53.668;9.578;2023-11-19T19:23:24;12.00;99.90
14378;DHT22;7272;53.668;9.578;2023-11-19T19:26:25;12.00;99.90
14378;DHT22;7272;53.668;9.578;2023-11-19T19:29:27;12.20;99.90
14378;DHT22;7272;53.668;9.578;2023-11-19T19:32:28;12.30;99.90
14378;DHT22;7272;53.668;9.578;2023-11-19T19:35:29;12.30;99.90
14378;DHT22;7272;53.668;9.578;2023-11-19T19:38:31;12.30;99.90